Time;durP1;ratioP1;P1;durP2;ratioP2;P2;SDS_P1;SDS_P2;PMS_P1;PMS_P2;Temp;Humidity;BMP_temperature;BMP_pressure;BME280_temperature;BME280_humidity;BME280_pressure;Samples;Min_cycle;Max_cycle;Signal;HPM_P1;HPM_P2
2023/11/12 00:00:23;;;;;;;20.38;11.95;;;5.70;99.90;;;;;;4987885;28;20486;-63
2023/11/12 00:02:49;;;;;;;16.40;11.75;;;5.70;99.90;;;;;;4970192;28;20049;-62
2023/11/12 00:05:18;;;;;;;16.98;11.93;;;5.70;99.90;;;;;;4984195;28;20043;-61
2023/11/12 00:07:43;;;;;;;20.27;12.77;;;5.80;99.90;;;;;;4983024;28;20046;-62
2023/11/12 00:10:12;;;;;;;20.70;12.40;;;5.80;99.90;;;;;;4986034;28;20037;-63
2023/11/12 00:12:40;;;;;;;18.95;11.68;;;5.80;99.90;;;;;;4983633;28;20042;-62
2023/11/12 00:15:07;;;;;;;20.42;12.95;;;5.80;99.90;;;;;;4987111;28;20374;-63
2023/11/12 00:17:33;;;;;;;20.05;12.27;;;5.80;99.90;;;;;;4976800;28;20263;-62
2023/11/12 00:19:59;;;;;;;18.95;13.00;;;5.80;99.90;;;;;;4986033;28;20054;-62
2023/11/12 00:22:27;;;;;;;21.27;13.77;;;5.80;99.90;;;;;;4987339;28;20418;-62
2023/11/12 00:24:53;;;;;;;20.50;13.98;;;5.80;99.90;;;;;;4985941;28;20520;-62
2023/11/12 00:27:18;;;;;;;20.17;13.43;;;5.80;99.90;;;;;;4987347;28;20085;-62
2023/11/12 00:29:44;;;;;;;17.15;12.70;;;5.90;99.90;;;;;;4987781;28;20080;-62
2023/11/12 00:32:10;;;;;;;20.50;13.68;;;5.90;99.90;;;;;;4986963;28;20220;-62
2023/11/12 00:34:35;;;;;;;19.05;12.93;;;5.90;99.90;;;;;;4987112;28;20042;-62
2023/11/12 00:37:01;;;;;;;21.38;13.57;;;5.90;99.90;;;;;;4987699;28;20049;-62
2023/11/12 00:39:27;;;;;;;20.10;12.77;;;5.90;99.90;;;;;;4987781;28;20050;-61
2023/11/12 00:41:53;;;;;;;22.65;13.35;;;5.90;99.90;;;;;;4987723;28;20038;-62
2023/11/12 00:44:19;;;;;;;22.50;13.70;;;6.00;99.90;;;;;;4970026;28;20108;-63
2023/11/12 00:46:44;;;;;;;23.85;13.27;;;6.00;99.90;;;;;;4983775;28;20039;-62
2023/11/12 00:49:10;;;;;;;20.23;13.50;;;6.00;99.90;;;;;;4986231;28;20061;-62
2023/11/12 00:51:36;;;;;;;18.65;12.52;;;6.00;99.90;;;;;;4987018;28;20065;-62
2023/11/12 00:54:02;;;;;;;18.17;12.95;;;6.00;99.90;;;;;;4987635;28;20034;-62
2023/11/12 00:56:27;;;;;;;19.08;13.27;;;6.00;99.90;;;;;;4987850;28;20046;-61
2023/11/12 00:58:53;;;;;;;20.35;13.00;;;6.00;99.90;;;;;;4974055;28;20049;-62
2023/11/12 01:01:19;;;;;;;20.00;12.18;;;6.00;99.90;;;;;;4973241;28;20390;-62
2023/11/12 01:03:44;;;;;;;18.13;12.85;;;6.10;99.90;;;;;;4989398;28;20049;-62
2023/11/12 01:06:10;;;;;;;21.02;12.70;;;6.00;99.90;;;;;;4989443;28;20053;-61
2023/11/12 01:08:36;;;;;;;19.02;13.30;;;6.00;99.90;;;;;;4994349;28;20034;-59
2023/11/12 01:11:02;;;;;;;18.55;12.07;;;6.00;99.90;;;;;;4974738;28;20042;-62
2023/11/12 01:13:27;;;;;;;21.30;13.60;;;6.00;99.90;;;;;;4957216;28;20049;-62
2023/11/12 01:15:53;;;;;;;21.08;13.15;;;6.00;99.90;;;;;;4973197;28;20128;-62
2023/11/12 01:18:20;;;;;;;17.95;12.25;;;5.90;99.90;;;;;;4990889;28;20386;-62
2023/11/12 01:20:46;;;;;;;18.02;12.70;;;5.90;99.90;;;;;;4993687;28;20038;-61
2023/11/12 01:23:13;;;;;;;18.92;12.15;;;6.00;99.90;;;;;;4990893;28;20062;-63
2023/11/12 01:25:40;;;;;;;18.85;11.40;;;5.90;99.90;;;;;;4972683;28;20042;-62
2023/11/12 01:28:06;;;;;;;17.80;11.60;;;5.90;99.90;;;;;;4991009;28;20065;-62
2023/11/12 01:30:32;;;;;;;17.92;11.45;;;5.90;99.90;;;;;;4991922;28;20042;-62
2023/11/12 01:32:57;;;;;;;14.85;11.27;;;5.80;99.90;;;;;;4990537;28;20030;-62
2023/11/12 01:35:23;;;;;;;18.58;12.38;;;5.80;99.90;;;;;;4990619;28;20046;-62
2023/11/12 01:37:49;;;;;;;18.65;11.80;;;5.80;99.90;;;;;;4996292;28;20137;-62
2023/11/12 01:40:16;;;;;;;15.80;11.18;;;5.80;99.90;;;;;;4990668;28;20039;-62
2023/11/12 01:42:45;;;;;;;18.42;11.65;;;5.70;99.90;;;;;;4990594;28;20101;-62
2023/11/12 01:45:12;;;;;;;17.45;11.52;;;5.70;99.90;;;;;;4990151;28;20045;-63
2023/11/12 01:47:39;;;;;;;16.52;11.40;;;5.70;99.90;;;;;;4990590;28;20402;-63
2023/11/12 01:50:07;;;;;;;17.25;11.85;;;5.70;99.90;;;;;;4990265;28;20034;-61
2023/11/12 01:52:34;;;;;;;16.77;11.63;;;5.70;99.90;;;;;;4990504;28;20049;-61
2023/11/12 01:55:02;;;;;;;17.85;12.60;;;5.70;99.90;;;;;;4996471;28;20077;-61
2023/11/12 01:57:28;;;;;;;17.35;11.77;;;5.70;99.90;;;;;;4973066;28;20144;-62
2023/11/12 01:59:54;;;;;;;19.52;12.75;;;5.70;99.90;;;;;;4989968;28;20085;-63
2023/11/12 02:02:21;;;;;;;20.00;12.13;;;5.80;99.90;;;;;;4992785;28;20074;-62
2023/11/12 02:04:49;;;;;;;18.52;12.63;;;5.80;99.90;;;;;;4990077;28;20038;-62
2023/11/12 02:07:15;;;;;;;18.23;12.30;;;5.80;99.90;;;;;;4972625;28;20046;-62
2023/11/12 02:09:41;;;;;;;19.52;12.57;;;5.80;99.90;;;;;;4989850;28;20035;-62
2023/11/12 02:12:07;;;;;;;18.25;11.82;;;5.80;99.90;;;;;;4989363;28;20049;-62
2023/11/12 02:14:33;;;;;;;18.15;12.40;;;5.80;99.90;;;;;;4986576;28;20498;-62
2023/11/12 02:16:59;;;;;;;19.08;12.20;;;5.80;99.90;;;;;;4985950;28;20105;-62
2023/11/12 02:19:26;;;;;;;17.52;11.95;;;5.70;99.90;;;;;;4996313;28;20038;-62
2023/11/12 02:21:53;;;;;;;15.05;11.32;;;5.70;99.90;;;;;;4994278;28;20053;-59
2023/11/12 02:24:25;;;;;;;19.23;11.32;;;5.70;99.90;;;;;;4982927;28;20046;-62
2023/11/12 02:26:51;;;;;;;17.77;11.50;;;5.70;99.90;;;;;;4989523;28;20038;-62
2023/11/12 02:29:17;;;;;;;18.35;11.90;;;5.60;99.90;;;;;;4988346;28;20073;-62
2023/11/12 02:31:43;;;;;;;15.65;11.13;;;5.60;99.90;;;;;;4988135;28;20054;-62
2023/11/12 02:34:09;;;;;;;16.73;11.10;;;5.50;99.90;;;;;;4971851;28;20070;-60
2023/11/12 02:36:35;;;;;;;19.25;11.30;;;5.50;99.90;;;;;;4994365;28;20072;-62
2023/11/12 02:39:01;;;;;;;16.25;10.20;;;5.50;99.90;;;;;;4973146;28;20477;-62
2023/11/12 02:41:27;;;;;;;16.85;11.07;;;5.50;99.90;;;;;;4975647;28;20050;-62
2023/11/12 02:43:55;;;;;;;18.88;10.68;;;5.40;99.90;;;;;;4974185;28;20137;-62
2023/11/12 02:46:21;;;;;;;15.45;10.27;;;5.40;99.90;;;;;;4988941;28;20047;-62
2023/11/12 02:48:59;;;;;;;15.65;11.02;;;5.30;99.90;;;;;;4998260;28;20661;-63
2023/11/12 02:51:24;;;;;;;15.98;11.13;;;5.30;99.90;;;;;;4988580;28;20038;-63
2023/11/12 02:53:50;;;;;;;15.75;9.77;;;5.30;99.90;;;;;;4996502;28;20076;-62
2023/11/12 02:56:16;;;;;;;13.80;10.45;;;5.20;99.90;;;;;;4987297;28;20532;-62
2023/11/12 02:58:42;;;;;;;15.07;10.18;;;5.20;99.90;;;;;;4979578;28;20045;-62
2023/11/12 03:01:07;;;;;;;16.40;10.13;;;5.20;99.90;;;;;;4988513;28;20030;-62
2023/11/12 03:03:33;;;;;;;9.00;6.63;;;5.20;99.90;;;;;;4985117;28;20035;-61
2023/11/12 03:05:59;;;;;;;10.35;5.70;;;5.20;99.90;;;;;;4986761;28;20121;-63
2023/11/12 03:08:25;;;;;;;8.20;6.32;;;5.10;99.90;;;;;;4989263;28;20145;-63
2023/11/12 03:10:50;;;;;;;12.00;7.75;;;5.10;99.90;;;;;;4985744;28;20045;-62
2023/11/12 03:13:16;;;;;;;13.00;7.68;;;5.00;99.90;;;;;;4988033;28;20043;-63
2023/11/12 03:15:42;;;;;;;10.05;7.65;;;5.00;99.90;;;;;;4954243;28;20038;-59
2023/11/12 03:18:08;;;;;;;12.38;8.50;;;5.00;99.90;;;;;;4988742;28;20042;-62
2023/11/12 03:20:33;;;;;;;11.07;8.07;;;5.00;99.90;;;;;;4988487;28;20085;-62
2023/11/12 03:22:59;;;;;;;12.07;8.13;;;4.90;99.90;;;;;;4988907;28;20251;-63
2023/11/12 03:25:24;;;;;;;16.17;8.65;;;4.90;99.90;;;;;;4987794;28;20030;-61
2023/11/12 03:27:50;;;;;;;12.30;9.38;;;4.90;99.90;;;;;;4988087;28;20122;-61
2023/11/12 03:30:15;;;;;;;16.00;10.35;;;4.90;99.90;;;;;;4987143;28;20037;-62
2023/11/12 03:32:41;;;;;;;16.55;9.85;;;4.90;99.90;;;;;;4970430;28;20507;-62
2023/11/12 03:35:08;;;;;;;16.00;10.43;;;4.90;99.90;;;;;;4988021;28;20493;-62
2023/11/12 03:37:33;;;;;;;16.25;10.57;;;4.80;99.90;;;;;;4981345;28;20101;-62
2023/11/12 03:39:59;;;;;;;16.30;10.93;;;4.80;99.90;;;;;;4983792;28;20502;-62
2023/11/12 03:42:25;;;;;;;17.13;11.32;;;4.80;99.90;;;;;;4987553;28;20067;-62
2023/11/12 03:44:50;;;;;;;18.75;10.40;;;4.90;99.90;;;;;;4988216;28;20038;-62
2023/11/12 03:47:16;;;;;;;16.02;10.93;;;4.80;99.90;;;;;;4987452;28;20042;-62
2023/11/12 03:49:42;;;;;;;14.88;10.38;;;4.80;99.90;;;;;;4983043;28;20140;-62
2023/11/12 03:52:09;;;;;;;17.52;10.85;;;4.80;99.90;;;;;;4987894;28;20121;-62
2023/11/12 03:54:36;;;;;;;18.33;10.73;;;4.80;99.90;;;;;;4968270;28;20601;-62
2023/11/12 03:57:03;;;;;;;16.40;9.75;;;4.80;99.90;;;;;;4987517;28;20173;-62
2023/11/12 03:59:28;;;;;;;14.77;9.98;;;4.70;99.90;;;;;;4983223;28;20469;-62
2023/11/12 04:01:54;;;;;;;15.35;10.07;;;4.70;99.90;;;;;;4985220;28;20062;-62
2023/11/12 04:04:19;;;;;;;15.00;9.50;;;4.70;99.90;;;;;;4970001;28;20117;-62
2023/11/12 04:06:45;;;;;;;14.02;9.10;;;4.70;99.90;;;;;;4987479;28;20042;-63
2023/11/12 04:09:11;;;;;;;27.40;8.90;;;4.60;99.90;;;;;;4987563;28;20034;-62
2023/11/12 04:11:38;;;;;;;10.32;7.55;;;4.60;99.90;;;;;;4987592;28;20082;-62
2023/11/12 04:14:04;;;;;;;9.70;7.18;;;4.50;99.90;;;;;;4979689;28;20075;-62
2023/11/12 04:16:30;;;;;;;9.00;6.82;;;4.50;99.90;;;;;;4987377;28;20065;-62
2023/11/12 04:18:56;;;;;;;9.90;7.25;;;4.50;99.90;;;;;;4987241;28;20037;-62
2023/11/12 04:21:21;;;;;;;10.05;7.40;;;4.40;99.90;;;;;;4965515;28;20042;-62
2023/11/12 04:23:48;;;;;;;10.30;7.40;;;4.40;99.90;;;;;;4992907;28;20053;-62
2023/11/12 04:26:14;;;;;;;11.77;8.05;;;4.40;99.90;;;;;;4987078;28;20572;-62
2023/11/12 04:28:39;;;;;;;11.32;8.38;;;4.40;99.90;;;;;;4987775;28;20042;-62
2023/11/12 04:31:05;;;;;;;12.38;8.45;;;4.40;99.90;;;;;;4986943;28;20101;-62
2023/11/12 04:33:30;;;;;;;12.20;8.55;;;4.40;99.90;;;;;;4982980;28;20042;-62
2023/11/12 04:35:56;;;;;;;13.85;8.90;;;4.40;99.90;;;;;;4987049;28;20065;-62
2023/11/12 04:38:22;;;;;;;12.07;9.07;;;4.40;99.90;;;;;;4987793;28;20224;-62
2023/11/12 04:40:48;;;;;;;11.68;8.68;;;4.50;99.90;;;;;;4987401;28;20446;-62
2023/11/12 04:43:15;;;;;;;11.85;9.07;;;4.50;99.90;;;;;;4987892;28;20042;-62
2023/11/12 04:45:42;;;;;;;13.80;9.38;;;4.50;99.90;;;;;;4987349;28;20039;-62
2023/11/12 04:48:07;;;;;;;14.73;9.13;;;4.50;99.90;;;;;;4984778;28;20646;-62
2023/11/12 04:50:33;;;;;;;13.82;9.80;;;4.50;99.90;;;;;;4988195;28;20053;-62
2023/11/12 04:52:59;;;;;;;13.20;8.95;;;4.50;99.90;;;;;;4988873;28;20037;-62
2023/11/12 04:55:25;;;;;;;13.30;9.13;;;4.50;99.90;;;;;;4987449;28;20038;-62
2023/11/12 04:57:50;;;;;;;13.10;9.70;;;4.60;99.90;;;;;;4988107;28;20042;-62
2023/11/12 05:00:16;;;;;;;15.35;9.88;;;4.60;99.90;;;;;;4987734;28;20046;-62
2023/11/12 05:02:44;;;;;;;15.15;9.32;;;4.60;99.90;;;;;;4983947;28;20042;-62
2023/11/12 05:05:11;;;;;;;17.40;10.63;;;4.70;99.90;;;;;;4986754;28;20046;-62
2023/11/12 05:07:36;;;;;;;16.85;10.57;;;4.70;99.90;;;;;;4987456;28;20335;-62
2023/11/12 05:10:05;;;;;;;17.08;10.68;;;4.70;99.90;;;;;;4993558;28;20053;-62
2023/11/12 05:12:31;;;;;;;16.13;10.43;;;4.70;99.90;;;;;;4986437;28;20510;-62
2023/11/12 05:14:56;;;;;;;17.45;11.25;;;4.70;99.90;;;;;;4986606;28;20346;-62
2023/11/12 05:17:22;;;;;;;16.20;10.40;;;4.70;99.90;;;;;;4989086;28;20053;-62
2023/11/12 05:19:48;;;;;;;16.90;11.57;;;4.80;99.90;;;;;;4969714;28;20576;-62
2023/11/12 05:22:13;;;;;;;14.13;10.85;;;4.80;99.90;;;;;;4985550;28;20082;-62
2023/11/12 05:24:39;;;;;;;14.25;10.38;;;4.80;99.90;;;;;;4987055;28;20524;-62
2023/11/12 05:27:05;;;;;;;14.73;10.70;;;4.80;99.90;;;;;;4984036;28;20046;-62
2023/11/12 05:29:31;;;;;;;15.40;10.90;;;4.80;99.90;;;;;;4987376;28;20041;-62
2023/11/12 05:31:57;;;;;;;14.73;11.00;;;4.80;99.90;;;;;;4986460;28;20038;-62
2023/11/12 05:34:23;;;;;;;17.05;11.00;;;4.80;99.90;;;;;;4987144;28;20504;-62
2023/11/12 05:36:49;;;;;;;14.60;10.70;;;4.80;99.90;;;;;;4969729;28;20047;-62
2023/11/12 05:39:15;;;;;;;15.27;10.85;;;4.80;99.90;;;;;;4967685;28;20046;-62
2023/11/12 05:41:41;;;;;;;16.98;10.88;;;4.80;99.90;;;;;;4969321;28;20100;-62
2023/11/12 05:44:07;;;;;;;13.70;10.45;;;4.80;99.90;;;;;;4970692;28;20050;-62
2023/11/12 05:46:32;;;;;;;14.45;10.90;;;4.80;99.90;;;;;;4988793;28;20050;-62
2023/11/12 05:48:58;;;;;;;14.27;10.15;;;4.80;99.90;;;;;;4988569;28;20034;-62
2023/11/12 05:51:24;;;;;;;13.95;10.43;;;4.80;99.90;;;;;;4990101;28;20104;-62
2023/11/12 05:53:49;;;;;;;13.68;10.10;;;4.80;99.90;;;;;;4988860;28;20430;-62
2023/11/12 05:56:15;;;;;;;14.52;10.05;;;4.80;99.90;;;;;;4988640;28;20102;-62
2023/11/12 05:58:40;;;;;;;14.18;10.50;;;4.80;99.90;;;;;;4990317;28;20118;-62
2023/11/12 06:01:06;;;;;;;15.35;10.20;;;4.70;99.90;;;;;;4989890;28;20498;-62
2023/11/12 06:03:31;;;;;;;18.13;10.55;;;4.70;99.90;;;;;;4989982;28;20120;-62
2023/11/12 06:05:57;;;;;;;13.70;10.57;;;4.70;99.90;;;;;;4989356;28;20038;-62
2023/11/12 06:08:23;;;;;;;14.25;10.43;;;4.70;99.90;;;;;;4989953;28;20030;-62
2023/11/12 06:10:49;;;;;;;13.27;10.10;;;4.70;99.90;;;;;;4990511;28;20053;-62
2023/11/12 06:13:17;;;;;;;12.73;10.07;;;4.70;99.90;;;;;;4990921;28;20498;-62
2023/11/12 06:15:43;;;;;;;12.93;9.90;;;4.70;99.90;;;;;;4993244;28;20042;-62
2023/11/12 06:18:09;;;;;;;15.00;9.70;;;4.70;99.90;;;;;;4989838;28;20500;-62
2023/11/12 06:20:35;;;;;;;12.68;9.65;;;4.70;99.90;;;;;;4983921;28;20046;-62
2023/11/12 06:23:00;;;;;;;13.50;9.45;;;4.70;99.90;;;;;;4987808;28;20501;-62
2023/11/12 06:25:26;;;;;;;12.90;9.60;;;4.60;99.90;;;;;;4989185;28;20529;-62
2023/11/12 06:27:52;;;;;;;12.63;9.60;;;4.60;99.90;;;;;;4971811;28;20397;-62
2023/11/12 06:30:18;;;;;;;12.82;9.80;;;4.60;99.90;;;;;;4989250;28;20144;-62
2023/11/12 06:32:44;;;;;;;14.07;9.27;;;4.60;99.90;;;;;;4989145;28;20045;-62
2023/11/12 06:35:09;;;;;;;13.02;9.73;;;4.60;99.90;;;;;;4986309;28;20026;-62
2023/11/12 06:37:35;;;;;;;13.32;9.98;;;4.60;99.90;;;;;;4987895;28;20053;-62
2023/11/12 06:40:01;;;;;;;14.20;9.82;;;4.60;99.90;;;;;;4989371;28;20072;-62
2023/11/12 06:42:27;;;;;;;13.98;10.27;;;4.60;99.90;;;;;;4988999;28;20072;-62
2023/11/12 06:44:52;;;;;;;15.82;10.40;;;4.60;99.90;;;;;;4989169;28;20046;-62
2023/11/12 06:47:21;;;;;;;17.05;11.00;;;4.60;99.90;;;;;;4988771;28;20574;-62
2023/11/12 06:49:47;;;;;;;14.70;10.35;;;4.60;99.90;;;;;;4987801;28;20638;-62
2023/11/12 06:52:14;;;;;;;15.93;12.02;;;4.70;99.90;;;;;;4988810;28;20042;-62
2023/11/12 06:54:40;;;;;;;16.20;12.02;;;4.70;99.90;;;;;;4988335;28;20049;-62
2023/11/12 06:57:06;;;;;;;15.77;11.63;;;4.70;99.90;;;;;;4988973;28;20437;-62
2023/11/12 06:59:32;;;;;;;16.45;12.07;;;4.40;99.90;;;;;;4988907;28;20150;-62
2023/11/12 07:01:57;;;;;;;18.23;11.82;;;4.80;99.90;;;;;;4971372;28;20494;-62
2023/11/12 07:04:23;;;;;;;18.30;12.60;;;4.80;99.90;;;;;;4988996;28;20050;-62
2023/11/12 07:06:49;;;;;;;21.65;14.02;;;4.80;99.90;;;;;;4982836;28;20035;-62
2023/11/12 07:09:15;;;;;;;18.27;13.23;;;4.80;99.90;;;;;;4988885;28;20624;-62
2023/11/12 07:11:41;;;;;;;24.27;13.85;;;4.80;99.90;;;;;;4986140;28;20425;-62
2023/11/12 07:14:06;;;;;;;21.10;14.15;;;4.90;99.90;;;;;;4993354;28;20037;-62
2023/11/12 07:16:32;;;;;;;20.65;14.45;;;4.90;99.90;;;;;;4987855;28;20460;-62
2023/11/12 07:18:57;;;;;;;21.38;13.75;;;4.90;99.90;;;;;;4988548;28;20038;-62
2023/11/12 07:21:27;;;;;;;20.27;14.23;;;4.90;99.90;;;;;;4988619;28;20042;-62
2023/11/12 07:23:54;;;;;;;21.45;14.52;;;5.00;99.90;;;;;;4984420;28;20124;-62
2023/11/12 07:26:19;;;;;;;22.17;14.57;;;5.00;99.90;;;;;;4988164;28;20172;-62
2023/11/12 07:28:45;;;;;;;23.15;15.48;;;5.00;99.90;;;;;;4988286;28;20109;-62
2023/11/12 07:31:11;;;;;;;21.58;15.20;;;5.00;99.90;;;;;;4987928;28;21026;-62
2023/11/12 07:33:38;;;;;;;24.40;15.38;;;5.10;99.90;;;;;;4989028;28;20050;-62
2023/11/12 07:36:05;;;;;;;22.10;15.10;;;5.10;99.90;;;;;;4984770;28;20418;-63
2023/11/12 07:38:30;;;;;;;23.65;15.43;;;5.20;99.90;;;;;;4989153;28;20309;-62
2023/11/12 07:40:56;;;;;;;25.08;16.20;;;5.20;99.90;;;;;;4970700;28;20077;-63
2023/11/12 07:43:22;;;;;;;25.23;16.10;;;5.30;99.90;;;;;;4988092;28;20117;-62
2023/11/12 07:45:47;;;;;;;25.08;15.30;;;5.30;99.90;;;;;;4987459;28;20034;-62
2023/11/12 07:48:14;;;;;;;25.45;16.95;;;5.30;99.90;;;;;;4970301;28;20789;-62
2023/11/12 07:50:41;;;;;;;30.23;18.02;;;5.40;99.90;;;;;;4989123;28;20042;-62
2023/11/12 07:53:07;;;;;;;55.28;17.83;;;5.40;99.90;;;;;;4993714;28;20042;-62
2023/11/12 07:55:32;;;;;;;46.17;18.73;;;5.50;99.90;;;;;;4987857;28;20046;-62
2023/11/12 07:57:59;;;;;;;29.77;17.92;;;5.50;99.90;;;;;;4970123;28;20117;-62
2023/11/12 08:00:25;;;;;;;55.15;18.77;;;5.60;99.90;;;;;;4987934;28;20074;-62
2023/11/12 08:02:51;;;;;;;45.10;21.45;;;5.60;99.90;;;;;;4987983;28;20046;-62
2023/11/12 08:05:18;;;;;;;87.10;21.73;;;5.60;99.90;;;;;;4969856;28;20049;-62
2023/11/12 08:07:46;;;;;;;75.35;22.00;;;5.60;99.90;;;;;;4970175;28;20046;-62
2023/11/12 08:10:12;;;;;;;102.40;22.58;;;5.70;99.90;;;;;;4987766;28;20446;-62
2023/11/12 08:12:38;;;;;;;31.15;19.60;;;5.70;99.90;;;;;;4987997;28;20049;-62
2023/11/12 08:15:11;;;;;;;75.80;21.35;;;5.70;99.90;;;;;;4986697;28;20046;-62
2023/11/12 08:17:37;;;;;;;33.38;19.42;;;5.70;99.90;;;;;;4988487;28;20092;-62
2023/11/12 08:20:04;;;;;;;85.30;22.33;;;5.70;99.90;;;;;;4987735;28;20073;-62
2023/11/12 08:22:30;;;;;;;95.05;21.58;;;5.80;99.90;;;;;;4986378;28;20486;-62
2023/11/12 08:24:56;;;;;;;34.85;21.58;;;5.80;99.90;;;;;;4987956;28;20043;-62
2023/11/12 08:27:22;;;;;;;34.88;21.00;;;5.80;99.90;;;;;;4980978;28;20064;-62
2023/11/12 08:29:48;;;;;;;76.72;21.25;;;5.80;99.90;;;;;;4991422;28;20034;-62
2023/11/12 08:32:14;;;;;;;107.43;23.48;;;5.90;99.90;;;;;;4985624;28;20046;-62
2023/11/12 08:34:39;;;;;;;245.32;27.40;;;5.90;99.90;;;;;;4970103;28;20394;-62
2023/11/12 08:37:06;;;;;;;68.28;22.23;;;5.90;99.90;;;;;;4987304;28;20046;-62
2023/11/12 08:39:32;;;;;;;83.97;23.17;;;5.90;99.90;;;;;;4989511;28;20042;-62
2023/11/12 08:41:59;;;;;;;36.42;20.73;;;5.90;99.90;;;;;;4987842;28;20045;-62
2023/11/12 08:44:24;;;;;;;34.55;20.35;;;6.00;99.90;;;;;;4987532;28;21382;-62
2023/11/12 08:46:50;;;;;;;104.47;22.15;;;6.00;99.90;;;;;;4987968;28;20121;-62
2023/11/12 08:49:15;;;;;;;35.60;21.05;;;6.00;99.90;;;;;;4987722;28;20516;-62
2023/11/12 08:51:41;;;;;;;98.45;22.38;;;6.00;99.90;;;;;;4969927;28;20086;-62
2023/11/12 08:54:09;;;;;;;61.75;21.35;;;6.00;99.90;;;;;;4987118;28;20513;-62
2023/11/12 08:56:35;;;;;;;61.92;22.25;;;6.10;99.90;;;;;;4987492;28;20046;-62
2023/11/12 08:59:03;;;;;;;35.60;21.50;;;6.10;99.90;;;;;;4953967;28;20042;-62
2023/11/12 09:01:32;;;;;;;71.65;22.65;;;6.10;99.90;;;;;;4982329;28;20150;-62
2023/11/12 09:03:57;;;;;;;59.20;22.40;;;6.10;99.90;;;;;;4967814;28;20110;-62
2023/11/12 09:06:23;;;;;;;36.83;21.27;;;6.20;99.90;;;;;;4986944;28;20174;-62
2023/11/12 09:08:48;;;;;;;35.45;21.00;;;6.20;99.90;;;;;;4987560;28;20056;-62
2023/11/12 09:11:14;;;;;;;82.72;23.15;;;6.20;99.90;;;;;;4978932;28;20076;-62
2023/11/12 09:13:41;;;;;;;57.75;23.13;;;6.20;99.90;;;;;;4979398;28;20039;-62
2023/11/12 09:16:07;;;;;;;53.47;23.02;;;6.20;99.90;;;;;;4952822;28;20513;-62
2023/11/12 09:18:33;;;;;;;55.10;23.27;;;6.20;99.90;;;;;;4970037;28;20054;-62
2023/11/12 09:20:59;;;;;;;40.42;21.95;;;6.30;99.90;;;;;;4983647;28;20045;-62
2023/11/12 09:23:25;;;;;;;40.30;22.58;;;6.20;99.90;;;;;;4992337;28;20127;-62
2023/11/12 09:25:50;;;;;;;64.22;23.65;;;6.30;99.90;;;;;;4993491;28;20034;-62
2023/11/12 09:28:16;;;;;;;57.75;22.85;;;6.30;99.90;;;;;;4991352;28;20053;-62
2023/11/12 09:30:42;;;;;;;45.05;23.55;;;6.40;99.90;;;;;;4991000;28;20113;-62
2023/11/12 09:33:09;;;;;;;44.40;21.65;;;6.40;99.90;;;;;;4990965;28;20039;-62
2023/11/12 09:35:35;;;;;;;43.40;22.30;;;6.40;99.90;;;;;;4990410;28;20038;-62
2023/11/12 09:38:01;;;;;;;45.95;21.92;;;6.40;99.90;;;;;;4983273;28;20401;-62
2023/11/12 09:40:31;;;;;;;39.75;22.23;;;6.40;99.90;;;;;;4989100;28;20050;-62
2023/11/12 09:42:57;;;;;;;57.92;24.00;;;6.50;99.90;;;;;;4984168;28;20043;-62
2023/11/12 09:45:24;;;;;;;44.00;23.50;;;6.50;99.90;;;;;;4989641;28;20046;-62
2023/11/12 09:48:03;;;;;;;39.47;23.98;;;6.50;99.90;;;;;;4987507;28;20757;-62
2023/11/12 09:50:31;;;;;;;44.28;22.90;;;6.60;99.90;;;;;;4990563;28;20038;-62
2023/11/12 09:53:03;;;;;;;40.95;23.65;;;6.60;99.90;;;;;;4988167;28;20580;-62
2023/11/12 09:55:28;;;;;;;45.55;24.75;;;6.60;99.90;;;;;;4990340;28;20494;-62
2023/11/12 09:57:54;;;;;;;40.78;23.77;;;6.60;99.90;;;;;;4990038;28;20053;-62
2023/11/12 10:00:20;;;;;;;40.58;23.90;;;6.70;99.90;;;;;;4990661;28;20049;-62
2023/11/12 10:02:46;;;;;;;44.92;24.20;;;6.70;99.90;;;;;;4972230;28;20481;-62
2023/11/12 10:05:13;;;;;;;41.67;24.25;;;6.70;99.90;;;;;;4987268;28;20085;-62
2023/11/12 10:07:42;;;;;;;46.08;25.63;;;6.70;99.90;;;;;;4985729;28;20500;-62
2023/11/12 10:10:27;;;;;;;44.55;25.02;;;6.70;99.90;;;;;;4987831;28;20038;-62
2023/11/12 10:12:56;;;;;;;40.33;23.42;;;6.80;99.90;;;;;;4972533;28;20387;-62
2023/11/12 10:15:30;;;;;;;42.25;24.80;;;6.80;99.90;;;;;;4989555;28;20128;-62
2023/11/12 10:17:56;;;;;;;44.67;25.52;;;6.90;99.90;;;;;;4972201;28;20116;-62
2023/11/12 10:20:39;;;;;;;47.70;25.52;;;6.90;99.90;;;;;;4956489;28;20056;-62
2023/11/12 10:23:17;;;;;;;44.88;25.10;;;6.90;99.90;;;;;;4990272;28;20472;-62
2023/11/12 10:25:48;;;;;;;44.80;24.15;;;6.90;99.90;;;;;;4987186;28;20399;-62
2023/11/12 10:28:14;;;;;;;47.22;26.30;;;7.00;99.90;;;;;;4988791;28;20410;-62
2023/11/12 10:30:41;;;;;;;44.40;26.58;;;7.00;99.90;;;;;;4989078;28;20027;-62
2023/11/12 10:33:23;;;;;;;53.65;28.10;;;7.10;99.90;;;;;;4989811;28;20470;-62
2023/11/12 10:35:49;;;;;;;51.88;27.70;;;7.10;99.90;;;;;;4971918;28;20048;-62
2023/11/12 10:38:17;;;;;;;53.13;28.17;;;7.10;99.90;;;;;;4989672;28;20485;-62
2023/11/12 10:41:04;;;;;;;49.92;27.90;;;7.20;99.90;;;;;;4987458;28;20424;-62
2023/11/12 10:43:35;;;;;;;51.67;28.13;;;7.20;99.90;;;;;;4989830;28;20401;-62
2023/11/12 10:46:06;;;;;;;53.03;27.90;;;7.20;99.90;;;;;;4986308;28;20031;-62
2023/11/12 10:48:41;;;;;;;52.05;28.25;;;7.30;99.90;;;;;;4989903;28;20401;-62
2023/11/12 10:51:08;;;;;;;48.05;27.73;;;7.30;99.90;;;;;;4989023;28;20048;-62
2023/11/12 10:53:38;;;;;;;47.20;28.35;;;7.30;99.90;;;;;;4989783;28;20130;-62
2023/11/12 10:56:06;;;;;;;52.97;28.00;;;7.30;99.90;;;;;;4988646;28;20042;-62
2023/11/12 10:58:32;;;;;;;50.72;29.17;;;7.30;99.90;;;;;;4989804;28;20553;-62
2023/11/12 11:01:01;;;;;;;57.72;30.75;;;7.40;99.90;;;;;;4988352;28;20409;-62
2023/11/12 11:03:28;;;;;;;54.40;31.20;;;7.40;99.90;;;;;;4987805;28;20046;-62
2023/11/12 11:06:01;;;;;;;55.33;29.80;;;7.40;99.90;;;;;;4984122;28;20343;-62
2023/11/12 11:08:30;;;;;;;54.63;29.20;;;7.50;99.90;;;;;;4989180;28;20038;-62
2023/11/12 11:11:00;;;;;;;49.67;30.95;;;7.50;99.90;;;;;;4989166;28;20125;-62
2023/11/12 11:13:27;;;;;;;57.97;32.33;;;7.60;99.90;;;;;;4988694;28;20109;-62
2023/11/12 11:15:55;;;;;;;53.10;31.92;;;7.60;99.90;;;;;;4988844;28;20082;-62
2023/11/12 11:18:33;;;;;;;54.78;32.10;;;7.70;99.90;;;;;;4971632;28;20433;-62
2023/11/12 11:21:38;;;;;;;55.58;30.80;;;7.70;99.90;;;;;;4988567;28;20421;-62
2023/11/12 11:23:56;;;;;;;55.30;30.75;;;7.70;99.90;;;;;;4986411;28;20038;-62
2023/11/12 11:26:43;;;;;;;51.88;30.10;;;7.70;99.90;;;;;;4988532;28;20410;-62
2023/11/12 11:29:13;;;;;;;53.50;31.08;;;7.80;99.90;;;;;;4984888;28;20042;-62
2023/11/12 11:31:47;;;;;;;50.78;30.85;;;7.80;99.90;;;;;;4988577;28;20038;-62
2023/11/12 11:34:15;;;;;;;48.50;29.50;;;7.70;99.90;;;;;;4988497;28;20053;-62
2023/11/12 11:37:01;;;;;;;48.50;29.58;;;7.80;99.90;;;;;;4988443;28;20153;-62
2023/11/12 11:39:28;;;;;;;51.40;31.00;;;7.80;99.90;;;;;;4984458;28;20065;-62
2023/11/12 11:42:03;;;;;;;52.15;31.15;;;7.90;99.90;;;;;;4988612;28;20046;-62
2023/11/12 11:44:35;;;;;;;52.40;29.85;;;7.90;99.90;;;;;;4965209;28;20057;-62
2023/11/12 11:47:17;;;;;;;;;;;7.90;99.90;;;;;;4971357;28;20046;-62
2023/11/12 11:50:12;;;;;;;53.77;29.77;;;7.90;99.90;;;;;;4984831;28;20385;-62
2023/11/12 11:52:41;;;;;;;48.63;30.17;;;7.90;99.90;;;;;;4966699;28;20467;-62
2023/11/12 11:55:25;;;;;;;47.75;29.08;;;8.00;99.90;;;;;;4988216;28;20375;-62
2023/11/12 11:57:53;;;;;;;47.85;28.42;;;8.00;99.90;;;;;;4986710;28;20083;-62
2023/11/12 12:00:19;;;;;;;46.55;29.27;;;8.00;99.90;;;;;;4988748;28;20387;-62
2023/11/12 12:02:45;;;;;;;51.17;29.65;;;8.00;99.90;;;;;;4988013;28;20101;-62
2023/11/12 12:05:15;;;;;;;47.28;28.52;;;8.00;99.90;;;;;;4987690;28;20043;-62
2023/11/12 12:07:45;;;;;;;50.60;29.98;;;8.00;99.90;;;;;;4987976;28;20077;-62
2023/11/12 12:10:25;;;;;;;46.17;28.95;;;8.00;99.90;;;;;;4970143;28;20586;-62
2023/11/12 12:12:51;;;;;;;45.00;28.95;;;8.00;99.90;;;;;;4970245;28;20042;-62
2023/11/12 12:15:17;;;;;;;52.80;30.23;;;8.10;99.90;;;;;;4987310;28;20069;-62
2023/11/12 12:17:43;;;;;;;48.38;28.90;;;8.00;99.90;;;;;;4988018;28;20509;-62
2023/11/12 12:20:09;;;;;;;52.33;30.05;;;8.10;99.90;;;;;;4970032;28;20077;-62
2023/11/12 12:22:35;;;;;;;51.15;30.27;;;8.10;99.90;;;;;;4986466;28;20068;-62
2023/11/12 12:25:01;;;;;;;49.10;28.83;;;8.10;99.90;;;;;;4983937;28;20478;-62
2023/11/12 12:27:26;;;;;;;49.22;29.25;;;8.10;99.90;;;;;;4987214;28;20047;-62
2023/11/12 12:29:53;;;;;;;51.10;29.13;;;8.10;99.90;;;;;;4987699;28;20030;-62
2023/11/12 12:32:19;;;;;;;49.42;29.15;;;8.10;99.90;;;;;;4987367;28;20128;-62
2023/11/12 12:34:56;;;;;;;49.67;29.20;;;8.10;99.90;;;;;;4987461;28;20501;-62
2023/11/12 12:37:24;;;;;;;47.13;29.35;;;8.10;99.90;;;;;;4980392;28;20042;-62